createdAt,value
2022-07-26T00:01:45.464Z,2.00
2022-07-26T00:04:42.954Z,2.00
2022-07-26T00:07:40.295Z,2.20
2022-07-26T00:10:42.850Z,2.00
2022-07-26T00:13:40.218Z,2.00
2022-07-26T00:16:38.948Z,2.00
2022-07-26T00:19:36.335Z,1.80
2022-07-26T00:22:35.886Z,3.00
2022-07-26T00:25:33.510Z,2.00
2022-07-26T00:28:31.149Z,2.00
2022-07-26T00:31:28.417Z,3.00
2022-07-26T00:34:26.101Z,2.00
2022-07-26T00:37:23.257Z,2.20
2022-07-26T00:40:20.291Z,1.00
2022-07-26T00:43:18.075Z,2.00
2022-07-26T00:46:15.006Z,2.00
2022-07-26T00:49:12.856Z,2.00
2022-07-26T00:52:10.690Z,2.00
2022-07-26T00:55:08.379Z,2.60
2022-07-26T00:58:06.479Z,1.60
2022-07-26T01:01:04.306Z,2.00
2022-07-26T01:04:00.757Z,2.00
2022-07-26T01:06:58.248Z,3.00
2022-07-26T01:09:55.174Z,3.00
2022-07-26T01:12:52.031Z,2.40
2022-07-26T01:15:49.204Z,2.80
2022-07-26T01:18:46.115Z,2.60
2022-07-26T01:21:43.314Z,2.80
2022-07-26T01:24:40.356Z,2.00
2022-07-26T01:27:41.097Z,3.00
2022-07-26T01:30:38.476Z,2.80
2022-07-26T01:33:35.254Z,3.00
2022-07-26T01:36:32.105Z,2.00
2022-07-26T01:39:29.226Z,2.80
2022-07-26T01:42:25.972Z,2.80
2022-07-26T01:45:23.126Z,2.60
2022-07-26T01:48:20.043Z,2.00
2022-07-26T01:51:17.092Z,2.80
2022-07-26T01:54:15.384Z,3.60
2022-07-26T01:57:22.304Z,2.60
2022-07-26T02:00:19.368Z,3.00
2022-07-26T02:03:16.247Z,2.20
2022-07-26T02:06:13.119Z,3.20
2022-07-26T02:09:13.230Z,2.00
2022-07-26T02:12:10.246Z,3.40
2022-07-26T02:15:08.278Z,3.40
2022-07-26T02:18:05.263Z,3.20
2022-07-26T02:21:02.066Z,3.00
2022-07-26T02:23:59.035Z,2.40
2022-07-26T02:26:59.907Z,3.20
2022-07-26T02:29:57.175Z,4.00
2022-07-26T02:32:54.205Z,3.00
2022-07-26T02:35:51.507Z,4.00
2022-07-26T02:38:49.218Z,3.00
2022-07-26T02:41:46.276Z,4.00
2022-07-26T02:44:43.423Z,2.20
2022-07-26T02:47:50.155Z,4.00
2022-07-26T02:50:47.087Z,3.00
2022-07-26T02:53:44.340Z,3.40
2022-07-26T02:56:40.946Z,4.00
2022-07-26T02:59:38.406Z,3.40
2022-07-26T03:02:35.356Z,4.00
2022-07-26T03:05:32.268Z,4.00
2022-07-26T03:08:29.537Z,4.00
2022-07-26T03:11:26.117Z,3.40
2022-07-26T03:14:23.330Z,3.00
2022-07-26T03:17:20.621Z,4.20
2022-07-26T03:20:18.447Z,2.80
2022-07-26T03:23:15.489Z,4.20
2022-07-26T03:26:12.479Z,3.60
2022-07-26T03:29:09.441Z,3.40
2022-07-26T03:32:06.626Z,5.20
2022-07-26T03:35:04.702Z,4.00
2022-07-26T03:38:02.759Z,4.20
2022-07-26T03:41:00.297Z,5.00
2022-07-26T03:43:58.112Z,4.80
2022-07-26T03:46:55.625Z,4.00
2022-07-26T03:49:52.906Z,3.80
2022-07-26T03:52:50.343Z,4.80
2022-07-26T03:56:10.174Z,4.00
2022-07-26T03:59:08.513Z,4.00
2022-07-26T04:02:05.389Z,3.80
2022-07-26T04:05:02.191Z,5.00
2022-07-26T04:07:59.013Z,3.80
2022-07-26T04:10:56.482Z,3.00
2022-07-26T04:13:53.313Z,4.40
2022-07-26T04:16:50.391Z,4.00
2022-07-26T04:19:47.267Z,3.60
2022-07-26T04:22:45.148Z,6.00
2022-07-26T04:25:42.073Z,4.00
2022-07-26T04:28:39.325Z,5.00
2022-07-26T04:31:36.677Z,4.80
2022-07-26T04:34:34.317Z,5.20
2022-07-26T04:37:33.109Z,4.00
2022-07-26T04:40:33.655Z,5.00
2022-07-26T04:43:31.070Z,6.00
2022-07-26T04:46:28.666Z,5.80
2022-07-26T04:49:26.951Z,6.00
2022-07-26T04:52:24.413Z,4.00
2022-07-26T04:55:21.695Z,7.00
2022-07-26T04:58:19.127Z,5.00
2022-07-26T05:01:17.446Z,5.00
2022-07-26T05:04:14.309Z,5.40
2022-07-26T05:07:11.308Z,4.40
2022-07-26T05:10:09.025Z,5.40
2022-07-26T05:13:07.816Z,6.00
2022-07-26T05:16:05.761Z,5.20
2022-07-26T05:19:09.133Z,6.00
2022-07-26T05:22:06.497Z,5.00
2022-07-26T05:25:04.543Z,5.80
2022-07-26T05:28:01.440Z,4.20
2022-07-26T05:30:58.328Z,5.00
2022-07-26T05:33:55.374Z,5.00
2022-07-26T05:36:52.118Z,6.00
2022-07-26T05:39:49.276Z,6.00
2022-07-26T05:42:48.442Z,6.20
2022-07-26T05:45:45.277Z,6.00
2022-07-26T05:48:42.781Z,6.60
2022-07-26T05:51:40.126Z,8.00
2022-07-26T05:54:37.438Z,11.40
2022-07-26T05:57:34.590Z,9.20
2022-07-26T06:00:31.643Z,7.00
2022-07-26T06:03:30.171Z,9.00
2022-07-26T06:06:27.458Z,10.00
2022-07-26T06:09:24.948Z,8.00
2022-07-26T06:12:22.250Z,8.00
2022-07-26T06:15:19.261Z,5.80
2022-07-26T06:18:16.209Z,7.00
2022-07-26T06:21:14.224Z,6.00
2022-07-26T06:24:11.787Z,4.80
2022-07-26T06:27:09.361Z,6.00
2022-07-26T06:30:08.031Z,5.60
2022-07-26T06:33:06.102Z,3.00
2022-07-26T06:36:03.443Z,3.00
2022-07-26T06:39:00.166Z,2.40
2022-07-26T06:41:57.631Z,4.00
2022-07-26T06:44:54.965Z,3.00
2022-07-26T06:47:52.276Z,3.00
2022-07-26T06:50:49.226Z,2.80
2022-07-26T06:53:47.034Z,2.20
2022-07-26T06:56:44.667Z,3.00
2022-07-26T06:59:42.490Z,3.00
2022-07-26T07:02:39.640Z,3.00
2022-07-26T07:05:36.330Z,4.00
2022-07-26T07:08:34.571Z,3.60
2022-07-26T07:11:32.350Z,3.80
2022-07-26T07:14:29.563Z,3.00
2022-07-26T07:17:26.424Z,1.80
2022-07-26T07:20:23.776Z,3.00
2022-07-26T07:23:23.448Z,3.00
2022-07-26T07:26:20.704Z,3.00
2022-07-26T07:29:20.277Z,3.00
2022-07-26T07:32:19.956Z,2.00
2022-07-26T07:35:17.707Z,2.60
2022-07-26T07:38:16.565Z,3.00
2022-07-26T07:41:15.379Z,2.00
2022-07-26T07:44:12.611Z,2.40
2022-07-26T07:47:09.561Z,2.00
2022-07-26T07:50:07.483Z,1.20
2022-07-26T07:53:04.377Z,1.40
2022-07-26T07:56:01.459Z,3.00
2022-07-26T07:58:59.967Z,3.00
2022-07-26T08:01:57.622Z,2.20
2022-07-26T08:04:55.784Z,2.00
2022-07-26T08:07:56.954Z,1.00
2022-07-26T08:10:54.559Z,1.00
2022-07-26T08:13:53.634Z,0.20
2022-07-26T08:16:52.293Z,0.00
2022-07-26T08:19:50.186Z,0.00
2022-07-26T08:22:47.598Z,0.00
2022-07-26T08:25:55.631Z,0.00
2022-07-26T08:28:58.556Z,0.00
2022-07-26T08:31:57.663Z,0.00
2022-07-26T08:34:54.659Z,0.00
2022-07-26T08:38:11.958Z,0.00
2022-07-26T08:41:09.631Z,0.00
2022-07-26T08:44:07.602Z,0.00
2022-07-26T08:47:07.757Z,0.00
2022-07-26T08:50:04.933Z,0.00
2022-07-26T08:53:07.072Z,0.00
2022-07-26T08:56:07.374Z,0.00
2022-07-26T08:59:06.367Z,0.00
2022-07-26T09:02:08.532Z,0.00
2022-07-26T09:05:06.681Z,0.00
2022-07-26T09:08:26.133Z,1.00
2022-07-26T09:11:23.435Z,0.00
2022-07-26T09:14:20.474Z,0.20
2022-07-26T09:17:19.290Z,0.40
2022-07-26T09:20:24.491Z,0.00
2022-07-26T09:23:23.850Z,0.00
2022-07-26T09:26:21.952Z,1.00
2022-07-26T09:29:19.682Z,0.60
2022-07-26T09:32:26.090Z,0.00
2022-07-26T09:35:50.571Z,1.00
2022-07-26T09:38:45.406Z,0.00
2022-07-26T09:41:42.576Z,0.00
2022-07-26T09:44:40.949Z,0.00
2022-07-26T09:47:45.651Z,0.00
2022-07-26T09:50:47.365Z,0.00
2022-07-26T09:53:46.038Z,0.00
2022-07-26T09:56:48.760Z,0.00
2022-07-26T09:59:46.832Z,0.00
2022-07-26T10:02:44.754Z,0.00
2022-07-26T10:05:42.192Z,0.00
2022-07-26T10:08:39.670Z,0.00
2022-07-26T10:11:43.675Z,0.00
2022-07-26T10:14:46.354Z,0.00
2022-07-26T10:17:43.651Z,0.00
2022-07-26T10:20:42.297Z,0.00
2022-07-26T10:23:44.194Z,0.00
2022-07-26T10:26:43.273Z,0.00
2022-07-26T10:29:41.857Z,0.00
2022-07-26T10:32:38.818Z,0.00
2022-07-26T10:35:42.317Z,0.00
2022-07-26T10:38:39.580Z,0.00
2022-07-26T10:41:40.870Z,0.00
2022-07-26T10:44:56.818Z,0.00
2022-07-26T10:48:14.858Z,0.00
2022-07-26T10:51:24.993Z,0.00
2022-07-26T10:54:22.562Z,1.00
2022-07-26T10:57:20.009Z,0.00
2022-07-26T11:00:19.989Z,0.00
2022-07-26T11:03:17.473Z,0.00
2022-07-26T11:06:19.037Z,0.60
2022-07-26T11:09:18.994Z,0.00
2022-07-26T11:12:19.132Z,0.00
2022-07-26T11:15:17.902Z,0.20
2022-07-26T11:18:19.882Z,0.00
2022-07-26T11:21:17.734Z,0.00
2022-07-26T11:24:14.777Z,1.00
2022-07-26T11:27:12.813Z,0.00
2022-07-26T11:30:10.250Z,0.00
2022-07-26T11:33:07.667Z,0.00
2022-07-26T11:36:05.100Z,0.20
2022-07-26T11:39:03.554Z,0.00
2022-07-26T11:42:10.301Z,1.00
2022-07-26T11:45:10.042Z,0.00
2022-07-26T11:48:07.919Z,1.00
2022-07-26T11:51:20.593Z,0.00
2022-07-26T11:54:18.345Z,1.00
2022-07-26T11:57:15.947Z,0.00
2022-07-26T12:00:13.678Z,1.00
2022-07-26T12:03:10.638Z,0.60
2022-07-26T12:06:09.390Z,1.00
2022-07-26T12:09:06.490Z,0.80
2022-07-26T12:12:05.867Z,1.00
2022-07-26T12:15:06.198Z,0.00
2022-07-26T12:18:05.017Z,0.00
2022-07-26T12:21:07.434Z,0.80
2022-07-26T12:24:05.006Z,0.40
2022-07-26T12:27:14.282Z,0.00
2022-07-26T12:30:11.540Z,0.00
2022-07-26T12:33:08.668Z,0.80
2022-07-26T12:36:28.139Z,0.20
2022-07-26T12:39:26.845Z,0.00
2022-07-26T12:42:34.274Z,0.20
2022-07-26T12:45:33.070Z,0.00
2022-07-26T12:48:30.708Z,0.80
2022-07-26T12:51:28.491Z,2.00
2022-07-26T12:54:29.484Z,0.40
2022-07-26T12:57:27.432Z,0.00
2022-07-26T13:00:24.942Z,0.20
2022-07-26T13:03:21.983Z,1.00
2022-07-26T13:06:18.764Z,0.00
2022-07-26T13:09:17.165Z,0.00
2022-07-26T13:12:15.159Z,1.00
2022-07-26T13:15:12.404Z,1.00
2022-07-26T13:18:09.988Z,1.60
2022-07-26T13:21:06.991Z,2.00
2022-07-26T13:24:03.697Z,1.00
2022-07-26T13:27:06.594Z,1.00
2022-07-26T13:30:03.942Z,1.60
2022-07-26T13:33:00.696Z,1.00
2022-07-26T13:35:57.625Z,1.80
2022-07-26T13:38:54.518Z,1.00
2022-07-26T13:41:51.933Z,1.60
2022-07-26T13:44:48.939Z,1.00
2022-07-26T13:47:45.779Z,2.00
2022-07-26T13:50:42.968Z,2.00
2022-07-26T13:53:55.166Z,1.00
2022-07-26T13:56:53.016Z,1.00
2022-07-26T13:59:50.228Z,2.20
2022-07-26T14:02:47.765Z,1.40
2022-07-26T14:05:44.511Z,1.00
2022-07-26T14:08:42.039Z,1.00
2022-07-26T14:11:38.700Z,1.00
2022-07-26T14:14:36.272Z,2.00
2022-07-26T14:17:33.652Z,1.80
2022-07-26T14:20:30.454Z,1.00
2022-07-26T14:23:27.914Z,1.60
2022-07-26T14:26:24.939Z,1.00
2022-07-26T14:29:24.895Z,1.00
2022-07-26T14:32:22.529Z,1.40
2022-07-26T14:35:19.787Z,1.60
2022-07-26T14:38:23.189Z,2.00
2022-07-26T14:41:22.683Z,0.00
2022-07-26T14:44:20.076Z,1.60
2022-07-26T14:47:16.511Z,2.00
2022-07-26T14:50:14.816Z,1.60
2022-07-26T14:53:15.678Z,2.60
2022-07-26T14:56:12.735Z,1.60
2022-07-26T14:59:09.721Z,2.00
2022-07-26T15:02:06.897Z,2.20
2022-07-26T15:05:04.017Z,1.40
2022-07-26T15:08:05.811Z,2.00
2022-07-26T15:11:05.572Z,2.00
2022-07-26T15:14:06.463Z,1.20
2022-07-26T15:17:03.373Z,1.40
2022-07-26T15:20:01.225Z,1.00
2022-07-26T15:22:59.427Z,2.00
2022-07-26T15:25:56.620Z,1.00
2022-07-26T15:28:53.671Z,1.00
2022-07-26T15:31:50.871Z,2.00
2022-07-26T15:34:47.831Z,2.00
2022-07-26T15:37:45.372Z,2.00
2022-07-26T15:40:43.008Z,1.40
2022-07-26T15:43:48.163Z,0.60
2022-07-26T15:46:48.190Z,1.00
2022-07-26T15:49:45.789Z,0.40
2022-07-26T15:52:44.801Z,1.00
2022-07-26T15:55:41.823Z,1.00
2022-07-26T15:58:38.925Z,0.80
2022-07-26T16:01:36.112Z,1.00
2022-07-26T16:04:32.762Z,0.00
2022-07-26T16:07:30.083Z,1.00
2022-07-26T16:10:28.624Z,0.40
2022-07-26T16:13:25.713Z,0.00
2022-07-26T16:16:23.326Z,0.00
2022-07-26T16:19:20.725Z,1.00
2022-07-26T16:22:17.965Z,0.00
2022-07-26T16:25:16.085Z,0.80
2022-07-26T16:28:16.021Z,0.00
2022-07-26T16:31:13.319Z,0.00
2022-07-26T16:34:10.683Z,0.80
2022-07-26T16:37:07.851Z,0.40
2022-07-26T16:40:08.842Z,0.80
2022-07-26T16:43:11.819Z,0.80
2022-07-26T16:46:09.954Z,1.00
2022-07-26T16:49:10.388Z,1.00
2022-07-26T16:52:07.973Z,1.00
2022-07-26T16:55:07.673Z,0.00
2022-07-26T16:58:05.234Z,1.00
2022-07-26T17:01:03.348Z,0.40
2022-07-26T17:04:00.797Z,1.50
2022-07-26T17:07:23.380Z,1.00
2022-07-26T17:10:14.800Z,0.00
2022-07-26T17:13:11.814Z,0.00
2022-07-26T17:16:08.977Z,0.00
2022-07-26T17:19:05.966Z,1.00
2022-07-26T17:22:03.290Z,1.00
2022-07-26T17:25:01.078Z,2.00
2022-07-26T17:27:58.173Z,1.20
2022-07-26T17:30:55.016Z,0.60
2022-07-26T17:33:52.141Z,0.20
2022-07-26T17:36:56.047Z,0.60
2022-07-26T17:39:55.249Z,1.00
2022-07-26T17:42:54.826Z,1.00
2022-07-26T17:45:52.081Z,1.00
2022-07-26T17:48:49.136Z,0.00
2022-07-26T17:51:46.090Z,1.00
2022-07-26T17:54:43.222Z,1.00
2022-07-26T17:57:40.316Z,0.80
2022-07-26T18:00:38.001Z,0.80
2022-07-26T18:03:34.838Z,0.40
2022-07-26T18:06:31.774Z,0.40
2022-07-26T18:09:29.218Z,1.00
2022-07-26T18:12:26.345Z,0.80
2022-07-26T18:15:24.052Z,0.00
2022-07-26T18:18:21.208Z,0.80
2022-07-26T18:21:18.182Z,1.00
2022-07-26T18:24:17.318Z,1.00
2022-07-26T18:27:15.146Z,0.20
2022-07-26T18:30:12.345Z,1.00
2022-07-26T18:33:14.382Z,1.00
2022-07-26T18:36:11.768Z,1.00
2022-07-26T18:39:09.534Z,0.00
2022-07-26T18:42:07.625Z,0.80
2022-07-26T18:45:05.621Z,1.00
2022-07-26T18:48:03.237Z,1.00
2022-07-26T18:51:00.388Z,1.00
2022-07-26T18:53:58.099Z,0.40
2022-07-26T18:56:55.502Z,1.00
2022-07-26T18:59:53.246Z,1.00
2022-07-26T19:02:52.862Z,1.00
2022-07-26T19:05:50.293Z,0.20
2022-07-26T19:08:48.342Z,1.00
2022-07-26T19:11:49.066Z,0.00
2022-07-26T19:14:46.829Z,0.00
2022-07-26T19:17:44.342Z,0.00
2022-07-26T19:20:40.907Z,1.00
2022-07-26T19:23:38.135Z,1.00
2022-07-26T19:26:36.083Z,0.00
2022-07-26T19:29:33.304Z,1.00
2022-07-26T19:32:33.513Z,1.00
2022-07-26T19:35:31.221Z,1.00
2022-07-26T19:38:27.835Z,0.00
2022-07-26T19:41:25.189Z,0.00
2022-07-26T19:44:22.146Z,0.20
2022-07-26T19:47:19.173Z,1.00
2022-07-26T19:50:15.820Z,0.00
2022-07-26T19:53:13.515Z,0.00
2022-07-26T19:56:11.037Z,0.40
2022-07-26T19:59:08.419Z,1.00
2022-07-26T20:02:06.337Z,1.00
2022-07-26T20:05:04.542Z,0.00
2022-07-26T20:08:02.413Z,1.00
2022-07-26T20:11:00.185Z,0.40
2022-07-26T20:13:56.827Z,0.00
2022-07-26T20:16:56.995Z,0.00
2022-07-26T20:19:54.215Z,0.40
2022-07-26T20:22:50.966Z,0.00
2022-07-26T20:25:48.403Z,0.20
2022-07-26T20:28:45.241Z,1.00
2022-07-26T20:31:42.491Z,0.20
2022-07-26T20:34:40.462Z,0.40
2022-07-26T20:37:38.238Z,0.00
2022-07-26T20:40:35.249Z,0.00
2022-07-26T20:43:32.245Z,1.00
2022-07-26T20:46:32.394Z,0.60
2022-07-26T20:49:30.051Z,0.40
2022-07-26T20:52:27.002Z,0.60
2022-07-26T20:55:24.476Z,0.00
2022-07-26T20:58:22.471Z,0.00
2022-07-26T21:01:20.379Z,1.00
2022-07-26T21:04:18.472Z,1.40
2022-07-26T21:07:16.266Z,0.00
2022-07-26T21:10:12.977Z,1.00
2022-07-26T21:13:10.298Z,0.00
2022-07-26T21:16:09.693Z,1.00
2022-07-26T21:19:07.604Z,0.00
2022-07-26T21:22:05.345Z,1.00
2022-07-26T21:25:02.259Z,1.00
2022-07-26T21:28:00.605Z,0.00
2022-07-26T21:30:58.062Z,0.80
2022-07-26T21:33:55.445Z,0.60
2022-07-26T21:36:53.107Z,0.60
2022-07-26T21:39:50.597Z,0.00
2022-07-26T21:42:48.307Z,0.00
2022-07-26T21:45:45.263Z,0.20
2022-07-26T21:48:42.652Z,0.00
2022-07-26T21:51:40.139Z,0.60
2022-07-26T21:54:37.537Z,0.60
2022-07-26T21:57:35.093Z,0.20
2022-07-26T22:00:32.736Z,0.00
2022-07-26T22:03:30.814Z,0.00
2022-07-26T22:06:29.378Z,0.60
2022-07-26T22:09:26.341Z,1.00
2022-07-26T22:12:23.337Z,0.80
2022-07-26T22:15:20.338Z,1.00
2022-07-26T22:18:17.522Z,0.00
2022-07-26T22:21:15.269Z,0.60
2022-07-26T22:24:12.415Z,0.00
2022-07-26T22:27:09.379Z,1.00
2022-07-26T22:30:08.226Z,0.80
2022-07-26T22:33:07.878Z,0.60
2022-07-26T22:36:05.659Z,1.20
2022-07-26T22:39:04.251Z,0.80
2022-07-26T22:42:14.809Z,1.00
2022-07-26T22:45:13.659Z,1.00
2022-07-26T22:48:11.257Z,0.00
2022-07-26T22:51:08.580Z,1.00
2022-07-26T22:54:06.290Z,1.00
2022-07-26T22:57:03.627Z,1.00
2022-07-26T23:00:01.683Z,1.00
2022-07-26T23:02:59.291Z,1.00
2022-07-26T23:05:56.097Z,2.00
2022-07-26T23:08:54.569Z,1.80
2022-07-26T23:11:52.562Z,1.60
2022-07-26T23:14:50.442Z,0.00
2022-07-26T23:17:47.102Z,1.00
2022-07-26T23:20:44.198Z,1.00
2022-07-26T23:23:41.426Z,1.00
2022-07-26T23:26:38.391Z,1.00
2022-07-26T23:29:35.585Z,1.00
2022-07-26T23:32:33.099Z,1.00
2022-07-26T23:35:30.257Z,0.00
2022-07-26T23:38:27.254Z,1.00
2022-07-26T23:41:24.336Z,0.80
2022-07-26T23:44:21.441Z,1.00
2022-07-26T23:47:19.534Z,1.00
2022-07-26T23:50:18.419Z,1.00
2022-07-26T23:53:15.179Z,1.00
2022-07-26T23:56:12.532Z,0.20
2022-07-26T23:59:09.932Z,0.40
